Time;durP1;ratioP1;P1;durP2;ratioP2;P2;SDS_P1;SDS_P2;PMS_P1;PMS_P2;Temp;Humidity;BMP_temperature;BMP_pressure;BME280_temperature;BME280_humidity;BME280_pressure;Samples;Min_cycle;Max_cycle;Signal;HPM_P1;HPM_P2
2023/07/08 00:00:22;;;;;;;7.80;7.10;;;;;;;;;;5014526;28;20536;-55
2023/07/08 00:02:49;;;;;;;7.80;6.97;;;;;;;;;;5014392;28;20464;-55
2023/07/08 00:05:19;;;;;;;7.20;6.53;;;;;;;;;;5014071;28;20500;-56
2023/07/08 00:07:46;;;;;;;8.03;7.43;;;;;;;;;;5013938;28;20873;-53
2023/07/08 00:10:14;;;;;;;8.07;7.47;;;;;;;;;;5013736;28;20484;-55
2023/07/08 00:12:41;;;;;;;7.90;7.40;;;;;;;;;;5013974;28;20459;-56
2023/07/08 00:15:09;;;;;;;7.10;6.50;;;;;;;;;;5013970;28;20557;-56
2023/07/08 00:17:36;;;;;;;8.40;7.60;;;;;;;;;;5013871;28;20461;-53
2023/07/08 00:20:03;;;;;;;7.47;6.87;;;;;;;;;;5013625;28;21035;-55
2023/07/08 00:22:36;;;;;;;6.77;6.17;;;;;;;;;;5013671;28;20897;-55
2023/07/08 00:25:03;;;;;;;6.50;6.00;;;;;;;;;;5014005;28;20459;-55
2023/07/08 00:27:29;;;;;;;6.93;6.43;;;;;;;;;;5013853;28;20454;-56
2023/07/08 00:29:56;;;;;;;7.17;6.23;;;;;;;;;;5013625;28;20852;-55
2023/07/08 00:32:25;;;;;;;7.17;6.63;;;;;;;;;;5013703;28;20448;-55
2023/07/08 00:34:52;;;;;;;7.80;7.13;;;;;;;;;;5013002;28;20452;-55
2023/07/08 00:37:19;;;;;;;8.00;7.40;;;;;;;;;;5013418;28;20539;-56
2023/07/08 00:39:47;;;;;;;7.13;6.57;;;;;;;;;;5013636;28;20459;-54
2023/07/08 00:42:17;;;;;;;7.47;6.87;;;;;;;;;;5013301;28;20454;-56
2023/07/08 00:44:44;;;;;;;7.80;7.10;;;;;;;;;;5013414;28;20560;-55
2023/07/08 00:47:12;;;;;;;7.60;6.80;;;;;;;;;;5013368;28;20454;-55
2023/07/08 00:49:42;;;;;;;8.17;7.30;;;;;;;;;;5013183;28;20578;-55
2023/07/08 00:52:22;;;;;;;8.50;7.80;;;;;;;;;;5013946;28;20453;-56
2023/07/08 00:54:54;;;;;;;6.90;6.40;;;;;;;;;;5013398;28;20449;-54
2023/07/08 00:57:22;;;;;;;6.90;6.00;;;;;;;;;;5013305;28;20476;-51
2023/07/08 00:59:51;;;;;;;7.53;6.83;;;;;;;;;;5013184;28;20485;-54
2023/07/08 01:02:19;;;;;;;7.77;7.10;;;;;;;;;;5013114;28;20451;-55
2023/07/08 01:04:49;;;;;;;11.13;8.10;;;;;;;;;;5013270;28;20536;-56
2023/07/08 01:07:21;;;;;;;7.20;6.60;;;;;;;;;;5013335;28;20543;-53
2023/07/08 01:09:48;;;;;;;8.00;7.40;;;;;;;;;;5013165;28;20487;-56
2023/07/08 01:12:18;;;;;;;6.80;6.30;;;;;;;;;;5013097;28;20543;-56
2023/07/08 01:14:45;;;;;;;7.00;6.40;;;;;;;;;;5012959;28;20541;-55
2023/07/08 01:17:13;;;;;;;7.83;7.13;;;;;;;;;;5013209;28;20484;-56
2023/07/08 01:19:40;;;;;;;7.90;7.20;;;;;;;;;;5012909;28;20943;-53
2023/07/08 01:22:09;;;;;;;6.73;6.23;;;;;;;;;;5013113;28;20449;-52
2023/07/08 01:24:38;;;;;;;6.77;6.00;;;;;;;;;;5013051;28;20564;-56
2023/07/08 01:27:06;;;;;;;9.43;6.60;;;;;;;;;;5012875;28;20455;-55
2023/07/08 01:29:33;;;;;;;7.17;6.57;;;;;;;;;;5012727;28;20488;-53
2023/07/08 01:32:02;;;;;;;7.13;6.63;;;;;;;;;;5013010;28;20461;-56
2023/07/08 01:34:29;;;;;;;6.90;6.23;;;;;;;;;;5012992;28;20454;-56
2023/07/08 01:36:58;;;;;;;7.47;6.93;;;;;;;;;;5012910;28;20538;-54
2023/07/08 01:39:27;;;;;;;7.50;6.90;;;;;;;;;;5012865;28;20623;-56
2023/07/08 01:41:54;;;;;;;7.20;6.53;;;;;;;;;;5012723;28;20430;-56
2023/07/08 01:44:25;;;;;;;7.27;6.67;;;;;;;;;;5013192;28;20498;-56
2023/07/08 01:46:54;;;;;;;7.73;7.20;;;;;;;;;;5014730;28;20547;-55
2023/07/08 01:49:21;;;;;;;7.00;6.50;;;;;;;;;;5016400;28;20523;-56
2023/07/08 01:51:48;;;;;;;6.67;6.27;;;;;;;;;;5016588;28;20448;-56
2023/07/08 01:54:15;;;;;;;11.50;7.47;;;;;;;;;;5016320;28;20546;-56
2023/07/08 01:56:44;;;;;;;7.87;7.07;;;;;;;;;;5016350;28;20969;-56
2023/07/08 01:59:11;;;;;;;8.40;7.60;;;;;;;;;;5016459;28;20855;-55
2023/07/08 02:01:37;;;;;;;6.97;6.43;;;;;;;;;;5016520;28;20547;-53
2023/07/08 02:04:05;;;;;;;7.87;7.27;;;;;;;;;;5016320;28;20484;-56
2023/07/08 02:06:31;;;;;;;6.90;6.30;;;;;;;;;;5016252;28;20884;-56
2023/07/08 02:08:59;;;;;;;8.80;7.70;;;;;;;;;;5016346;28;20458;-55
2023/07/08 02:11:26;;;;;;;9.87;6.73;;;;;;;;;;5016331;28;20492;-53
2023/07/08 02:13:54;;;;;;;8.10;7.37;;;;;;;;;;5016201;28;20459;-56
2023/07/08 02:16:21;;;;;;;9.00;7.50;;;;;;;;;;5016202;28;20456;-55
2023/07/08 02:18:48;;;;;;;8.43;7.63;;;;;;;;;;5016008;28;20551;-56
2023/07/08 02:21:17;;;;;;;8.90;8.10;;;;;;;;;;5016001;28;20547;-56
2023/07/08 02:23:44;;;;;;;7.97;7.23;;;;;;;;;;5016093;28;20447;-55
2023/07/08 02:26:11;;;;;;;10.57;8.20;;;;;;;;;;5015994;28;20490;-56
2023/07/08 02:28:38;;;;;;;7.97;7.17;;;;;;;;;;5015973;28;21010;-54
2023/07/08 02:31:06;;;;;;;8.33;7.63;;;;;;;;;;5015770;28;20570;-53
2023/07/08 02:33:33;;;;;;;7.00;6.40;;;;;;;;;;5015721;28;20458;-52
2023/07/08 02:36:00;;;;;;;8.53;7.60;;;;;;;;;;5015670;28;20428;-56
2023/07/08 02:38:27;;;;;;;7.17;6.47;;;;;;;;;;5015875;28;20551;-56
2023/07/08 02:40:54;;;;;;;6.80;6.10;;;;;;;;;;5015731;28;20478;-56
2023/07/08 02:43:21;;;;;;;7.67;6.90;;;;;;;;;;5015578;28;20452;-56
2023/07/08 02:45:50;;;;;;;7.67;6.97;;;;;;;;;;5015636;28;20455;-56
2023/07/08 02:48:18;;;;;;;8.30;7.60;;;;;;;;;;5015453;28;20456;-55
2023/07/08 02:50:45;;;;;;;7.30;6.70;;;;;;;;;;5015484;28;20538;-56
2023/07/08 02:53:12;;;;;;;6.50;6.10;;;;;;;;;;5015585;28;20506;-53
2023/07/08 02:55:39;;;;;;;7.40;6.80;;;;;;;;;;5015428;28;20796;-53
2023/07/08 02:58:06;;;;;;;13.77;7.13;;;;;;;;;;5014854;28;20496;-54
2023/07/08 03:00:33;;;;;;;7.40;6.80;;;;;;;;;;5015208;28;20436;-55
2023/07/08 03:03:00;;;;;;;8.20;7.60;;;;;;;;;;5015062;28;20460;-56
2023/07/08 03:05:28;;;;;;;8.30;7.57;;;;;;;;;;5015293;28;20456;-56
2023/07/08 03:07:55;;;;;;;8.13;7.47;;;;;;;;;;5015223;28;20559;-54
2023/07/08 03:10:22;;;;;;;8.03;7.43;;;;;;;;;;5015022;28;20494;-55
2023/07/08 03:12:49;;;;;;;7.60;7.00;;;;;;;;;;5015123;28;20478;-56
2023/07/08 03:15:16;;;;;;;8.00;7.40;;;;;;;;;;5015007;28;20452;-55
2023/07/08 03:17:43;;;;;;;8.70;8.00;;;;;;;;;;5014790;28;20462;-56
2023/07/08 03:20:11;;;;;;;7.93;7.33;;;;;;;;;;5015073;28;20479;-56
2023/07/08 03:22:39;;;;;;;8.30;7.60;;;;;;;;;;5014974;28;20466;-56
2023/07/08 03:25:06;;;;;;;9.43;8.53;;;;;;;;;;5014717;28;20457;-53
2023/07/08 03:27:33;;;;;;;8.53;7.93;;;;;;;;;;5014771;28;20539;-55
2023/07/08 03:30:00;;;;;;;8.80;8.20;;;;;;;;;;5014573;28;20748;-53
2023/07/08 03:32:27;;;;;;;8.30;7.60;;;;;;;;;;5014671;28;20948;-55
2023/07/08 03:34:54;;;;;;;8.33;7.60;;;;;;;;;;5014728;28;20456;-55
2023/07/08 03:37:21;;;;;;;9.87;8.97;;;;;;;;;;5014747;28;20952;-56
2023/07/08 03:39:49;;;;;;;8.70;8.00;;;;;;;;;;5014729;28;20447;-55
2023/07/08 03:42:16;;;;;;;8.30;7.67;;;;;;;;;;5014485;28;20447;-56
2023/07/08 03:44:43;;;;;;;7.73;7.10;;;;;;;;;;5014347;28;20550;-56
2023/07/08 03:47:10;;;;;;;9.63;8.63;;;;;;;;;;5014569;28;20448;-56
2023/07/08 03:49:37;;;;;;;8.30;7.60;;;;;;;;;;5014361;28;21113;-56
2023/07/08 03:52:04;;;;;;;7.70;7.20;;;;;;;;;;5014425;28;20903;-54
2023/07/08 03:54:31;;;;;;;8.73;7.77;;;;;;;;;;5014249;28;20509;-55
2023/07/08 03:56:59;;;;;;;8.10;7.50;;;;;;;;;;5014203;28;20526;-56
2023/07/08 03:59:26;;;;;;;8.83;8.13;;;;;;;;;;5014059;28;20891;-56
2023/07/08 04:01:54;;;;;;;8.00;7.40;;;;;;;;;;5014203;28;20452;-53
2023/07/08 04:04:21;;;;;;;7.77;7.23;;;;;;;;;;5014153;28;20452;-56
2023/07/08 04:06:50;;;;;;;8.30;7.60;;;;;;;;;;5014017;28;20460;-56
2023/07/08 04:09:17;;;;;;;7.90;7.07;;;;;;;;;;5013175;28;20790;-56
2023/07/08 04:11:44;;;;;;;7.87;7.27;;;;;;;;;;5013863;28;20530;-56
2023/07/08 04:14:13;;;;;;;8.07;7.47;;;;;;;;;;5014038;28;20973;-56
2023/07/08 04:16:45;;;;;;;9.17;8.17;;;;;;;;;;5013693;28;21025;-56
2023/07/08 04:19:14;;;;;;;7.63;6.93;;;;;;;;;;5013891;28;20456;-56
2023/07/08 04:21:41;;;;;;;7.60;7.10;;;;;;;;;;5013902;28;20452;-55
2023/07/08 04:24:09;;;;;;;8.20;7.47;;;;;;;;;;5013807;28;20480;-55
2023/07/08 04:26:36;;;;;;;8.37;7.67;;;;;;;;;;5013574;28;20452;-55
2023/07/08 04:29:03;;;;;;;7.60;6.93;;;;;;;;;;5013804;28;20541;-54
2023/07/08 04:31:32;;;;;;;9.27;7.60;;;;;;;;;;5013757;28;20580;-55
2023/07/08 04:33:59;;;;;;;8.00;7.30;;;;;;;;;;5013635;28;21024;-56
2023/07/08 04:36:26;;;;;;;8.47;7.40;;;;;;;;;;5013474;28;20535;-56
2023/07/08 04:38:53;;;;;;;7.70;7.00;;;;;;;;;;5013410;28;20456;-56
2023/07/08 04:41:20;;;;;;;6.53;6.07;;;;;;;;;;5013664;28;20452;-56
2023/07/08 04:43:47;;;;;;;6.70;6.10;;;;;;;;;;5013607;28;20548;-56
2023/07/08 04:46:19;;;;;;;6.70;6.10;;;;;;;;;;5013491;28;20812;-55
2023/07/08 04:48:48;;;;;;;5.77;5.37;;;;;;;;;;5013485;28;20559;-55
2023/07/08 04:51:15;;;;;;;7.07;6.57;;;;;;;;;;5013258;28;20531;-56
2023/07/08 04:53:42;;;;;;;7.00;5.90;;;;;;;;;;5013271;28;20446;-56
2023/07/08 04:56:09;;;;;;;6.27;5.87;;;;;;;;;;5013050;28;21028;-55
2023/07/08 04:58:36;;;;;;;5.90;5.40;;;;;;;;;;5013356;28;20461;-56
2023/07/08 05:01:03;;;;;;;5.87;5.47;;;;;;;;;;5013279;28;20515;-56
2023/07/08 05:03:30;;;;;;;5.23;4.90;;;;;;;;;;5013154;28;20887;-52
2023/07/08 05:05:58;;;;;;;5.50;5.10;;;;;;;;;;5013055;28;20544;-56
2023/07/08 05:08:25;;;;;;;5.57;5.17;;;;;;;;;;5013254;28;20505;-56
2023/07/08 05:10:52;;;;;;;5.33;4.90;;;;;;;;;;5013210;28;20485;-56
2023/07/08 05:13:19;;;;;;;5.50;5.10;;;;;;;;;;5013217;28;20809;-55
2023/07/08 05:15:46;;;;;;;4.83;4.47;;;;;;;;;;5013062;28;20460;-56
2023/07/08 05:18:13;;;;;;;5.23;4.83;;;;;;;;;;5013007;28;20539;-54
2023/07/08 05:20:40;;;;;;;4.90;4.60;;;;;;;;;;5014733;28;20555;-55
2023/07/08 05:23:08;;;;;;;5.30;4.80;;;;;;;;;;5017289;28;20889;-55
2023/07/08 05:25:35;;;;;;;5.10;4.70;;;;;;;;;;5017123;28;20458;-57
2023/07/08 05:28:02;;;;;;;6.13;5.67;;;;;;;;;;5017063;28;20812;-57
2023/07/08 05:30:29;;;;;;;5.53;5.13;;;;;;;;;;5016905;28;20976;-56
2023/07/08 05:32:56;;;;;;;5.33;4.93;;;;;;;;;;5016771;28;20589;-56
2023/07/08 05:35:24;;;;;;;5.73;5.10;;;;;;;;;;5016857;28;21039;-53
2023/07/08 05:37:51;;;;;;;5.13;4.73;;;;;;;;;;5016997;28;20508;-56
2023/07/08 05:40:19;;;;;;;5.23;4.80;;;;;;;;;;5016735;28;20447;-56
2023/07/08 05:42:46;;;;;;;4.53;4.23;;;;;;;;;;5016772;28;20457;-56
2023/07/08 05:45:13;;;;;;;4.80;4.50;;;;;;;;;;5016629;28;20537;-55
2023/07/08 05:47:40;;;;;;;5.47;4.90;;;;;;;;;;5016525;28;20450;-57
2023/07/08 05:50:07;;;;;;;4.80;4.53;;;;;;;;;;5016719;28;20489;-56
2023/07/08 05:52:34;;;;;;;5.17;4.70;;;;;;;;;;5016684;28;20482;-56
2023/07/08 05:55:01;;;;;;;5.40;5.00;;;;;;;;;;5016599;28;20477;-55
2023/07/08 05:57:29;;;;;;;5.20;4.80;;;;;;;;;;5016322;28;20474;-57
2023/07/08 05:59:56;;;;;;;5.37;4.60;;;;;;;;;;5016376;28;20450;-55
2023/07/08 06:02:25;;;;;;;5.30;4.93;;;;;;;;;;5016458;28;21018;-57
2023/07/08 06:04:52;;;;;;;4.70;4.40;;;;;;;;;;5016453;28;20462;-57
2023/07/08 06:07:20;;;;;;;5.00;4.50;;;;;;;;;;5016340;28;20862;-56
2023/07/08 06:09:46;;;;;;;5.37;4.97;;;;;;;;;;5016512;28;20508;-56
2023/07/08 06:12:13;;;;;;;4.43;4.13;;;;;;;;;;5016100;28;20838;-56
2023/07/08 06:14:42;;;;;;;4.97;4.57;;;;;;;;;;5016076;28;20503;-56
2023/07/08 06:17:09;;;;;;;4.30;4.00;;;;;;;;;;5016227;28;20534;-56
2023/07/08 06:19:35;;;;;;;5.17;4.77;;;;;;;;;;5016165;28;20875;-56
2023/07/08 06:22:02;;;;;;;6.20;4.60;;;;;;;;;;5016081;28;20545;-56
2023/07/08 06:24:29;;;;;;;5.00;4.70;;;;;;;;;;5015870;28;20512;-56
2023/07/08 06:26:56;;;;;;;4.17;3.93;;;;;;;;;;5015880;28;20545;-57
2023/07/08 06:29:23;;;;;;;5.30;4.80;;;;;;;;;;5016009;28;20457;-56
2023/07/08 06:31:51;;;;;;;4.10;3.90;;;;;;;;;;5014964;28;20494;-56
2023/07/08 06:34:22;;;;;;;5.13;4.77;;;;;;;;;;5015745;28;20830;-56
2023/07/08 06:36:49;;;;;;;3.83;3.63;;;;;;;;;;5015858;28;20962;-54
2023/07/08 06:39:16;;;;;;;4.10;3.80;;;;;;;;;;5015678;28;20446;-57
2023/07/08 06:41:43;;;;;;;4.60;4.20;;;;;;;;;;5015724;28;21129;-57
2023/07/08 06:44:10;;;;;;;5.03;4.70;;;;;;;;;;5015641;28;20821;-55
2023/07/08 06:46:37;;;;;;;4.80;4.40;;;;;;;;;;5015397;28;20491;-57
2023/07/08 06:49:08;;;;;;;4.93;4.40;;;;;;;;;;5015615;28;20451;-56
2023/07/08 06:51:35;;;;;;;3.80;3.60;;;;;;;;;;5015247;28;20470;-56
2023/07/08 06:54:04;;;;;;;4.77;4.47;;;;;;;;;;5015541;28;20977;-56
2023/07/08 06:56:31;;;;;;;4.47;4.07;;;;;;;;;;5014950;28;20869;-55
2023/07/08 06:58:58;;;;;;;4.83;4.33;;;;;;;;;;5015398;28;20967;-56
2023/07/08 07:01:25;;;;;;;3.47;3.33;;;;;;;;;;5015109;28;20549;-56
2023/07/08 07:03:52;;;;;;;6.07;4.10;;;;;;;;;;5015184;28;20517;-56
2023/07/08 07:06:20;;;;;;;4.33;4.03;;;;;;;;;;5015156;28;20458;-56
2023/07/08 07:08:47;;;;;;;4.60;4.30;;;;;;;;;;5014931;28;20542;-58
2023/07/08 07:11:14;;;;;;;4.83;4.33;;;;;;;;;;5015148;28;20478;-56
2023/07/08 07:13:41;;;;;;;4.90;4.50;;;;;;;;;;5015392;28;20454;-57
2023/07/08 07:16:08;;;;;;;5.73;4.00;;;;;;;;;;5015207;28;20545;-56
2023/07/08 07:18:35;;;;;;;4.37;4.03;;;;;;;;;;5014897;28;20459;-55
2023/07/08 07:21:02;;;;;;;4.67;4.27;;;;;;;;;;5014731;28;20993;-56
2023/07/08 07:23:30;;;;;;;4.43;4.03;;;;;;;;;;5014643;28;20451;-56
2023/07/08 07:25:58;;;;;;;4.17;3.97;;;;;;;;;;5014852;28;20451;-56
2023/07/08 07:28:25;;;;;;;4.90;4.50;;;;;;;;;;5014733;28;20466;-57
2023/07/08 07:30:57;;;;;;;4.13;3.83;;;;;;;;;;5014707;28;20885;-58
2023/07/08 07:33:24;;;;;;;4.47;4.07;;;;;;;;;;5014623;28;20450;-57
2023/07/08 07:35:51;;;;;;;3.83;3.63;;;;;;;;;;5014473;28;20457;-57
2023/07/08 07:38:18;;;;;;;5.33;3.80;;;;;;;;;;5014504;28;20446;-57
2023/07/08 07:40:46;;;;;;;3.83;3.63;;;;;;;;;;5014619;28;20881;-57
2023/07/08 07:43:13;;;;;;;3.93;3.60;;;;;;;;;;5014295;28;20969;-57
2023/07/08 07:45:40;;;;;;;4.53;3.70;;;;;;;;;;5014317;28;20450;-57
2023/07/08 07:48:07;;;;;;;4.47;3.60;;;;;;;;;;5014326;28;20446;-56
2023/07/08 07:50:34;;;;;;;4.27;3.90;;;;;;;;;;5014136;28;20561;-57
2023/07/08 07:53:01;;;;;;;3.73;3.43;;;;;;;;;;5014349;28;20482;-57
2023/07/08 07:55:28;;;;;;;3.47;3.27;;;;;;;;;;5014031;28;20455;-58
2023/07/08 07:57:56;;;;;;;4.03;3.80;;;;;;;;;;5014275;28;20538;-56
2023/07/08 08:00:23;;;;;;;3.67;3.37;;;;;;;;;;5014172;28;20451;-57
2023/07/08 08:02:50;;;;;;;4.10;3.80;;;;;;;;;;5014061;28;20460;-58
2023/07/08 08:05:17;;;;;;;3.30;2.97;;;;;;;;;;5013993;28;20450;-54
2023/07/08 08:07:45;;;;;;;3.80;3.60;;;;;;;;;;5014028;28;20451;-57
2023/07/08 08:10:12;;;;;;;3.83;3.53;;;;;;;;;;5014013;28;20550;-57
2023/07/08 08:12:39;;;;;;;2.90;2.70;;;;;;;;;;5013817;28;20854;-57
2023/07/08 08:15:08;;;;;;;4.40;4.10;;;;;;;;;;5013932;28;20537;-57
2023/07/08 08:17:35;;;;;;;3.60;3.30;;;;;;;;;;5013565;28;20814;-57
2023/07/08 08:20:01;;;;;;;4.40;4.00;;;;;;;;;;5013809;28;20553;-57
2023/07/08 08:22:28;;;;;;;4.20;3.17;;;;;;;;;;5013907;28;20541;-56
2023/07/08 08:24:55;;;;;;;4.73;3.40;;;;;;;;;;5013684;28;20488;-57
2023/07/08 08:27:22;;;;;;;4.03;3.70;;;;;;;;;;5013609;28;21026;-57
2023/07/08 08:29:49;;;;;;;5.10;3.67;;;;;;;;;;5013516;28;20457;-55
2023/07/08 08:32:18;;;;;;;3.77;3.47;;;;;;;;;;5013382;28;20485;-55
2023/07/08 08:34:45;;;;;;;3.17;3.07;;;;;;;;;;5013483;28;20490;-57
2023/07/08 08:37:12;;;;;;;3.57;3.37;;;;;;;;;;5013626;28;20482;-57
2023/07/08 08:39:39;;;;;;;3.90;3.60;;;;;;;;;;5013434;28;20501;-55
2023/07/08 08:42:06;;;;;;;3.00;2.87;;;;;;;;;;5013382;28;20465;-57
2023/07/08 08:44:34;;;;;;;3.33;3.00;;;;;;;;;;5013401;28;20459;-57
2023/07/08 08:47:05;;;;;;;3.30;2.90;;;;;;;;;;5013308;28;20553;-56
2023/07/08 08:49:36;;;;;;;3.10;2.90;;;;;;;;;;5013738;28;20454;-58
2023/07/08 08:52:03;;;;;;;3.37;3.07;;;;;;;;;;5013323;28;20584;-57
2023/07/08 08:54:31;;;;;;;3.03;2.83;;;;;;;;;;5013356;28;20513;-57
2023/07/08 08:57:02;;;;;;;2.87;2.70;;;;;;;;;;5014938;28;20474;-57
2023/07/08 08:59:31;;;;;;;5.13;3.07;;;;;;;;;;5013187;28;20450;-57
2023/07/08 09:01:58;;;;;;;3.40;3.10;;;;;;;;;;5013286;28;20477;-57
2023/07/08 09:04:28;;;;;;;3.33;2.97;;;;;;;;;;5013356;28;20892;-57
2023/07/08 09:07:01;;;;;;;2.70;2.60;;;;;;;;;;5013062;28;20450;-58
2023/07/08 09:09:31;;;;;;;3.00;2.90;;;;;;;;;;5013087;28;20883;-56
2023/07/08 09:12:01;;;;;;;3.03;2.83;;;;;;;;;;5012915;28;20521;-57
2023/07/08 09:14:29;;;;;;;2.70;2.50;;;;;;;;;;5013226;28;20917;-57
2023/07/08 09:17:00;;;;;;;4.13;3.23;;;;;;;;;;5013063;28;20442;-57
2023/07/08 09:19:30;;;;;;;3.27;3.07;;;;;;;;;;5013460;28;20482;-57
2023/07/08 09:22:02;;;;;;;2.80;2.60;;;;;;;;;;5013052;28;20457;-57
2023/07/08 09:24:32;;;;;;;4.27;3.07;;;;;;;;;;5013096;28;20447;-57
2023/07/08 09:27:01;;;;;;;2.50;2.40;;;;;;;;;;5013028;28;20483;-57
2023/07/08 09:29:28;;;;;;;2.40;2.20;;;;;;;;;;5013157;28;20991;-57
2023/07/08 09:31:56;;;;;;;3.00;2.70;;;;;;;;;;5012936;28;20557;-57
2023/07/08 09:34:24;;;;;;;4.20;2.97;;;;;;;;;;5012845;28;20541;-55
2023/07/08 09:36:52;;;;;;;5.50;2.43;;;;;;;;;;5012726;28;20476;-57
2023/07/08 09:39:21;;;;;;;2.47;2.33;;;;;;;;;;5012936;28;20459;-56
2023/07/08 09:41:49;;;;;;;4.50;2.47;;;;;;;;;;5012908;28;20455;-56
2023/07/08 09:44:18;;;;;;;2.43;2.33;;;;;;;;;;5012690;28;20457;-57
2023/07/08 09:46:45;;;;;;;3.67;2.27;;;;;;;;;;5012727;28;20522;-55
2023/07/08 09:49:19;;;;;;;2.30;2.10;;;;;;;;;;5012642;28;20467;-55
2023/07/08 09:51:46;;;;;;;2.20;2.10;;;;;;;;;;5012735;28;20854;-57
2023/07/08 09:54:14;;;;;;;2.60;2.50;;;;;;;;;;5012687;28;20455;-57
2023/07/08 09:56:43;;;;;;;2.63;2.50;;;;;;;;;;5012727;28;20585;-57
2023/07/08 09:59:13;;;;;;;2.80;2.57;;;;;;;;;;5012643;28;20489;-57
2023/07/08 10:01:41;;;;;;;2.70;2.10;;;;;;;;;;5012877;28;20446;-59
2023/07/08 10:04:08;;;;;;;2.70;1.93;;;;;;;;;;5012704;28;20446;-57
2023/07/08 10:06:36;;;;;;;2.23;2.13;;;;;;;;;;5012653;28;20454;-55
2023/07/08 10:09:04;;;;;;;4.00;2.50;;;;;;;;;;5016076;28;20957;-61
2023/07/08 10:11:31;;;;;;;2.27;2.17;;;;;;;;;;5016635;28;20486;-58
2023/07/08 10:14:03;;;;;;;2.23;2.13;;;;;;;;;;5016073;28;20486;-57
2023/07/08 10:16:32;;;;;;;2.63;2.43;;;;;;;;;;5016334;28;20549;-57
2023/07/08 10:18:59;;;;;;;2.90;2.43;;;;;;;;;;5016210;28;20446;-56
2023/07/08 10:21:31;;;;;;;2.73;2.53;;;;;;;;;;5016112;28;20537;-57
2023/07/08 10:24:04;;;;;;;2.67;2.37;;;;;;;;;;5016022;28;20442;-57
2023/07/08 10:26:32;;;;;;;3.20;2.90;;;;;;;;;;5015964;28;20446;-57
2023/07/08 10:29:06;;;;;;;2.40;2.20;;;;;;;;;;5015750;28;20537;-56
2023/07/08 10:31:35;;;;;;;2.90;2.70;;;;;;;;;;5016239;28;20449;-57
2023/07/08 10:34:14;;;;;;;2.50;2.40;;;;;;;;;;5015800;28;20486;-56
2023/07/08 10:36:44;;;;;;;2.83;2.63;;;;;;;;;;5015791;28;20497;-57
2023/07/08 10:39:29;;;;;;;2.50;2.40;;;;;;;;;;5015704;28;20456;-57
2023/07/08 10:42:02;;;;;;;3.07;2.57;;;;;;;;;;5015261;28;20533;-58
2023/07/08 10:44:33;;;;;;;2.63;2.40;;;;;;;;;;5015851;28;20451;-58
2023/07/08 10:47:04;;;;;;;3.50;3.07;;;;;;;;;;5015714;28;20450;-57
2023/07/08 10:49:40;;;;;;;2.63;2.43;;;;;;;;;;5015667;28;20489;-57
2023/07/08 10:52:18;;;;;;;2.50;2.30;;;;;;;;;;5015574;28;20537;-57
2023/07/08 10:54:57;;;;;;;3.13;2.83;;;;;;;;;;5015598;28;20865;-56
2023/07/08 10:57:40;;;;;;;6.57;2.80;;;;;;;;;;5015241;28;20474;-57
2023/07/08 11:00:17;;;;;;;3.70;2.50;;;;;;;;;;5015293;28;20463;-54
2023/07/08 11:03:01;;;;;;;2.00;1.90;;;;;;;;;;5024070;28;20446;-56
2023/07/08 11:05:33;;;;;;;2.40;2.10;;;;;;;;;;5017640;28;20450;-57
2023/07/08 11:08:03;;;;;;;2.77;2.47;;;;;;;;;;5033248;28;20445;-56
2023/07/08 11:10:32;;;;;;;2.70;2.50;;;;;;;;;;5029223;28;20452;-56
2023/07/08 11:13:01;;;;;;;2.57;2.37;;;;;;;;;;5023271;28;21109;-55
2023/07/08 11:15:31;;;;;;;2.70;2.50;;;;;;;;;;5024187;28;20484;-53
2023/07/08 11:18:01;;;;;;;2.57;2.37;;;;;;;;;;5031324;28;20801;-57
2023/07/08 11:20:32;;;;;;;3.37;2.97;;;;;;;;;;5034809;28;20454;-58
2023/07/08 11:23:02;;;;;;;5.10;2.30;;;;;;;;;;5034499;28;20533;-50
2023/07/08 11:25:29;;;;;;;2.43;2.23;;;;;;;;;;5034721;28;20532;-51
2023/07/08 11:27:58;;;;;;;2.57;2.40;;;;;;;;;;5034438;28;20450;-52
2023/07/08 11:30:26;;;;;;;2.50;2.37;;;;;;;;;;5034234;28;20937;-53
2023/07/08 11:32:58;;;;;;;2.83;2.63;;;;;;;;;;5034277;28;20480;-55
2023/07/08 11:35:29;;;;;;;10.90;9.93;;;;;;;;;;5034849;28;21052;-54
2023/07/08 11:37:56;;;;;;;3.93;3.60;;;;;;;;;;5034769;28;20473;-55
2023/07/08 11:40:24;;;;;;;2.50;2.40;;;;;;;;;;5027905;28;20941;-56
2023/07/08 11:42:53;;;;;;;2.57;2.37;;;;;;;;;;5023757;28;20485;-56
2023/07/08 11:45:25;;;;;;;2.53;2.33;;;;;;;;;;5023038;28;20457;-55
2023/07/08 11:47:52;;;;;;;2.77;2.50;;;;;;;;;;5014002;28;20454;-52
2023/07/08 11:50:24;;;;;;;2.70;2.50;;;;;;;;;;5014338;28;20543;-54
2023/07/08 11:52:54;;;;;;;2.97;2.77;;;;;;;;;;5014492;28;20478;-56
2023/07/08 11:55:24;;;;;;;2.63;2.43;;;;;;;;;;5014110;28;20483;-56
2023/07/08 11:57:57;;;;;;;3.33;2.60;;;;;;;;;;5014246;28;20483;-57
2023/07/08 12:00:24;;;;;;;9.23;8.43;;;;;;;;;;5013571;28;20455;-55
2023/07/08 12:02:53;;;;;;;2.27;2.17;;;;;;;;;;5013697;28;20462;-56
2023/07/08 12:05:29;;;;;;;2.70;2.60;;;;;;;;;;5014136;28;21002;-55
2023/07/08 12:07:58;;;;;;;4.40;2.30;;;;;;;;;;5014132;28;20521;-55
2023/07/08 12:10:28;;;;;;;3.27;3.07;;;;;;;;;;5013999;28;20454;-54
2023/07/08 12:12:55;;;;;;;2.67;2.47;;;;;;;;;;5013736;28;20483;-54
2023/07/08 12:15:23;;;;;;;3.17;2.93;;;;;;;;;;5014024;28;20545;-56
2023/07/08 12:17:52;;;;;;;2.80;2.60;;;;;;;;;;5013990;28;20458;-55
2023/07/08 12:20:21;;;;;;;2.70;2.60;;;;;;;;;;5013936;28;20482;-52
2023/07/08 12:22:48;;;;;;;3.10;2.80;;;;;;;;;;5013636;28;21019;-54
2023/07/08 12:25:17;;;;;;;3.17;2.97;;;;;;;;;;5013227;28;20456;-56
2023/07/08 12:27:44;;;;;;;3.10;2.80;;;;;;;;;;5013625;28;20543;-53
2023/07/08 12:30:12;;;;;;;2.63;2.53;;;;;;;;;;5012968;28;20581;-55
2023/07/08 12:32:39;;;;;;;2.20;2.03;;;;;;;;;;5013448;28;20946;-56
2023/07/08 12:35:06;;;;;;;2.40;2.20;;;;;;;;;;5013717;28;20527;-55
2023/07/08 12:37:33;;;;;;;2.87;2.67;;;;;;;;;;5013569;28;20450;-54
2023/07/08 12:40:04;;;;;;;3.00;2.80;;;;;;;;;;5013440;28;20993;-55
2023/07/08 12:42:33;;;;;;;2.53;2.33;;;;;;;;;;5013709;28;20446;-56
2023/07/08 12:45:00;;;;;;;3.07;2.87;;;;;;;;;;5013329;28;20490;-55
2023/07/08 12:47:26;;;;;;;2.67;2.47;;;;;;;;;;5013458;28;20877;-56
2023/07/08 12:49:53;;;;;;;2.90;2.70;;;;;;;;;;5013598;28;20537;-56
2023/07/08 12:52:22;;;;;;;3.60;2.67;;;;;;;;;;5013148;28;20545;-55
2023/07/08 12:54:48;;;;;;;2.40;2.20;;;;;;;;;;5013036;28;20486;-57
2023/07/08 12:57:16;;;;;;;5.23;2.60;;;;;;;;;;5013311;28;20876;-53
2023/07/08 12:59:45;;;;;;;2.80;2.60;;;;;;;;;;5013243;28;20549;-56
2023/07/08 13:02:16;;;;;;;2.50;2.30;;;;;;;;;;5013457;28;20545;-55
2023/07/08 13:04:43;;;;;;;2.67;2.40;;;;;;;;;;5013166;28;21025;-55
2023/07/08 13:07:14;;;;;;;2.90;2.50;;;;;;;;;;5013310;28;20550;-53
2023/07/08 13:09:45;;;;;;;2.83;2.63;;;;;;;;;;5013144;28;21021;-55
2023/07/08 13:12:15;;;;;;;2.77;2.57;;;;;;;;;;5013346;28;20457;-56
2023/07/08 13:14:43;;;;;;;2.90;2.67;;;;;;;;;;5013493;28;20504;-54
2023/07/08 13:17:12;;;;;;;3.07;2.87;;;;;;;;;;5013326;28;20456;-55
2023/07/08 13:19:40;;;;;;;3.00;2.80;;;;;;;;;;5012920;28;20457;-55
2023/07/08 13:22:10;;;;;;;2.83;2.63;;;;;;;;;;5012957;28;20518;-53
2023/07/08 13:24:37;;;;;;;4.80;3.60;;;;;;;;;;5013135;28;20447;-56
2023/07/08 13:27:05;;;;;;;3.43;3.13;;;;;;;;;;5013183;28;20455;-56
2023/07/08 13:29:35;;;;;;;3.70;3.13;;;;;;;;;;5013074;28;20828;-55
2023/07/08 13:32:05;;;;;;;3.50;2.47;;;;;;;;;;5012911;28;20942;-55
2023/07/08 13:34:33;;;;;;;2.87;2.77;;;;;;;;;;5012903;28;20485;-55
2023/07/08 13:37:02;;;;;;;2.67;2.30;;;;;;;;;;5012916;28;20455;-53
2023/07/08 13:39:30;;;;;;;2.40;2.20;;;;;;;;;;5012920;28;20454;-54
2023/07/08 13:41:58;;;;;;;2.60;2.20;;;;;;;;;;5014864;28;20461;-55
2023/07/08 13:44:25;;;;;;;3.10;2.90;;;;;;;;;;5016735;28;20458;-54
2023/07/08 13:46:57;;;;;;;2.80;2.60;;;;;;;;;;5016627;28;20450;-56
2023/07/08 13:49:27;;;;;;;2.67;2.47;;;;;;;;;;5016889;28;20453;-56
2023/07/08 13:52:05;;;;;;;3.30;3.10;;;;;;;;;;5016884;28;20450;-55
2023/07/08 13:54:36;;;;;;;2.70;2.50;;;;;;;;;;5016535;28;20569;-56
2023/07/08 13:57:03;;;;;;;2.67;2.50;;;;;;;;;;5016404;28;20586;-56
2023/07/08 13:59:30;;;;;;;2.70;2.50;;;;;;;;;;5016556;28;20995;-56
2023/07/08 14:01:58;;;;;;;2.57;2.47;;;;;;;;;;5016639;28;20815;-55
2023/07/08 14:04:30;;;;;;;2.77;2.57;;;;;;;;;;5016423;28;20457;-57
2023/07/08 14:06:57;;;;;;;3.10;2.90;;;;;;;;;;5016443;28;20489;-57
2023/07/08 14:09:25;;;;;;;2.70;2.50;;;;;;;;;;5016215;28;20537;-56
2023/07/08 14:11:53;;;;;;;2.53;2.33;;;;;;;;;;5016162;28;20537;-57
2023/07/08 14:14:20;;;;;;;3.90;2.60;;;;;;;;;;5016215;28;20539;-56
2023/07/08 14:16:49;;;;;;;2.97;2.77;;;;;;;;;;5016185;28;20450;-57
2023/07/08 14:19:17;;;;;;;3.63;3.20;;;;;;;;;;5016071;28;21057;-56
2023/07/08 14:21:44;;;;;;;3.10;2.70;;;;;;;;;;5016109;28;20458;-54
2023/07/08 14:24:15;;;;;;;4.07;2.60;;;;;;;;;;5015975;28;20451;-56
2023/07/08 14:26:43;;;;;;;4.90;3.00;;;;;;;;;;5015861;28;20946;-55
2023/07/08 14:29:12;;;;;;;2.77;2.50;;;;;;;;;;5016153;28;20466;-55
2023/07/08 14:31:39;;;;;;;3.00;2.80;;;;;;;;;;5015864;28;20877;-57
2023/07/08 14:34:07;;;;;;;3.07;2.87;;;;;;;;;;5015890;28;20486;-56
2023/07/08 14:36:34;;;;;;;3.97;3.13;;;;;;;;;;5016032;28;20458;-57
2023/07/08 14:39:01;;;;;;;2.73;2.53;;;;;;;;;;5015604;28;20459;-56
2023/07/08 14:41:28;;;;;;;3.53;3.13;;;;;;;;;;5015767;28;20450;-54
2023/07/08 14:43:55;;;;;;;4.03;2.97;;;;;;;;;;5015709;28;20490;-57
2023/07/08 14:46:24;;;;;;;2.90;2.70;;;;;;;;;;5015622;28;20546;-56
2023/07/08 14:48:51;;;;;;;3.30;3.10;;;;;;;;;;5015430;28;20497;-57